createdAt,value
2022-10-29T00:00:25.917Z,6.68
2022-10-29T00:02:53.663Z,11.10
2022-10-29T00:05:21.050Z,14.00
2022-10-29T00:07:48.704Z,5.40
2022-10-29T00:10:17.517Z,6.53
2022-10-29T00:12:44.996Z,13.77
2022-10-29T00:15:12.442Z,7.63
2022-10-29T00:17:39.833Z,12.15
2022-10-29T00:22:36.176Z,14.75
2022-10-29T00:25:03.895Z,8.98
2022-10-29T00:27:32.272Z,9.60
2022-10-29T00:29:59.729Z,8.70
2022-10-29T00:32:27.225Z,6.30
2022-10-29T00:34:54.668Z,11.88
2022-10-29T00:37:22.404Z,8.05
2022-10-29T00:39:49.892Z,8.63
2022-10-29T00:42:17.790Z,8.98
2022-10-29T00:44:45.436Z,8.43
2022-10-29T00:47:18.760Z,10.35
2022-10-29T00:49:47.237Z,7.57
2022-10-29T00:52:15.639Z,8.50
2022-10-29T00:54:45.141Z,10.05
2022-10-29T00:57:15.376Z,8.70
2022-10-29T00:59:43.449Z,8.57
2022-10-29T01:02:11.134Z,9.75
2022-10-29T01:04:38.898Z,12.13
2022-10-29T01:07:07.191Z,7.85
2022-10-29T01:09:34.585Z,7.07
2022-10-29T01:12:14.092Z,6.95
2022-10-29T01:14:57.826Z,7.00
2022-10-29T01:17:41.559Z,14.30
2022-10-29T01:20:21.909Z,9.32
2022-10-29T01:22:55.414Z,10.07
2022-10-29T01:25:41.965Z,6.53
2022-10-29T01:28:18.522Z,7.22
2022-10-29T01:31:19.459Z,7.97
2022-10-29T01:33:53.183Z,7.20
2022-10-29T01:36:39.765Z,10.07
2022-10-29T01:39:16.247Z,15.38
2022-10-29T01:41:53.478Z,12.20
2022-10-29T01:44:26.932Z,6.57
2022-10-29T01:46:56.792Z,7.57
2022-10-29T01:49:28.152Z,5.55
2022-10-29T01:51:56.871Z,5.22
2022-10-29T01:54:24.712Z,4.75
2022-10-29T01:56:56.460Z,10.05
2022-10-29T01:59:35.652Z,10.73
2022-10-29T02:02:17.067Z,5.70
2022-10-29T02:04:44.625Z,10.70
2022-10-29T02:07:38.482Z,7.78
2022-10-29T02:10:11.638Z,7.18
2022-10-29T02:12:50.000Z,6.90
2022-10-29T02:15:20.652Z,9.57
2022-10-29T02:17:48.294Z,9.43
2022-10-29T02:20:16.223Z,11.45
2022-10-29T02:22:44.047Z,7.28
2022-10-29T02:25:11.669Z,7.13
2022-10-29T02:27:39.344Z,8.55
2022-10-29T02:30:07.086Z,8.30
2022-10-29T02:32:34.630Z,8.20
2022-10-29T02:35:02.343Z,6.60
2022-10-29T02:37:30.324Z,13.85
2022-10-29T02:39:58.110Z,9.05
2022-10-29T02:42:25.625Z,6.20
2022-10-29T02:44:53.135Z,12.07
2022-10-29T02:47:20.656Z,14.68
2022-10-29T02:49:48.114Z,9.20
2022-10-29T02:52:15.568Z,10.10
2022-10-29T02:54:43.182Z,7.35
2022-10-29T02:57:10.933Z,9.45
2022-10-29T02:59:38.671Z,12.07
2022-10-29T03:02:06.227Z,8.85
2022-10-29T03:04:34.082Z,9.05
2022-10-29T03:07:03.046Z,9.18
2022-10-29T03:09:30.376Z,10.95
2022-10-29T03:11:57.868Z,10.55
2022-10-29T03:14:32.736Z,12.48
2022-10-29T03:17:00.225Z,9.73
2022-10-29T03:19:27.535Z,4.75
2022-10-29T03:21:55.031Z,6.85
2022-10-29T03:24:22.337Z,6.93
2022-10-29T03:26:49.855Z,4.68
2022-10-29T03:29:17.161Z,7.85
2022-10-29T03:31:47.255Z,5.60
2022-10-29T03:34:14.749Z,8.23
2022-10-29T03:36:42.394Z,6.35
2022-10-29T03:39:09.726Z,8.73
2022-10-29T03:41:41.818Z,5.75
2022-10-29T03:44:09.517Z,6.95
2022-10-29T03:46:37.012Z,5.82
2022-10-29T03:49:04.730Z,9.63
2022-10-29T03:51:33.418Z,8.63
2022-10-29T03:54:00.876Z,7.85
2022-10-29T03:56:28.165Z,6.47
2022-10-29T03:58:55.759Z,6.13
2022-10-29T04:01:23.391Z,6.03
2022-10-29T04:03:51.245Z,8.70
2022-10-29T04:06:18.725Z,8.75
2022-10-29T04:08:46.198Z,8.45
2022-10-29T04:11:14.239Z,10.13
2022-10-29T04:13:42.164Z,8.43
2022-10-29T04:16:09.967Z,8.70
2022-10-29T04:18:37.453Z,4.75
2022-10-29T04:22:36.849Z,7.97
2022-10-29T04:29:27.993Z,13.50
2022-10-29T04:31:55.874Z,10.10
2022-10-29T04:34:23.447Z,9.65
2022-10-29T04:36:53.602Z,11.80
2022-10-29T04:39:23.430Z,6.57
2022-10-29T04:41:50.989Z,12.77
2022-10-29T04:44:19.143Z,11.95
2022-10-29T04:46:46.939Z,11.30
2022-10-29T04:49:14.442Z,5.95
2022-10-29T04:51:42.090Z,8.38
2022-10-29T04:54:09.889Z,6.13
2022-10-29T04:56:37.529Z,10.30
2022-10-29T04:59:04.879Z,9.43
2022-10-29T05:01:32.363Z,8.25
2022-10-29T05:04:00.280Z,10.23
2022-10-29T05:06:27.764Z,4.72
2022-10-29T05:08:55.316Z,10.73
2022-10-29T05:11:22.913Z,14.05
2022-10-29T05:13:50.364Z,11.10
2022-10-29T05:16:18.818Z,11.68
2022-10-29T05:18:46.339Z,6.97
2022-10-29T05:21:13.657Z,7.07
2022-10-29T05:23:41.184Z,9.25
2022-10-29T05:26:09.393Z,9.60
2022-10-29T05:28:36.847Z,8.98
2022-10-29T05:31:05.146Z,5.60
2022-10-29T05:33:32.917Z,7.95
2022-10-29T05:36:04.469Z,6.10
2022-10-29T05:38:32.327Z,11.77
2022-10-29T05:41:00.363Z,9.35
2022-10-29T05:43:30.147Z,7.53
2022-10-29T05:45:57.524Z,8.77
2022-10-29T05:48:24.880Z,9.32
2022-10-29T05:50:52.604Z,12.13
2022-10-29T05:53:20.050Z,9.75
2022-10-29T05:55:47.537Z,5.85
2022-10-29T05:58:15.467Z,8.90
2022-10-29T06:00:44.198Z,6.90
2022-10-29T06:03:15.929Z,9.23
2022-10-29T06:05:43.739Z,7.72
2022-10-29T06:08:11.251Z,12.90
2022-10-29T06:10:40.295Z,10.82
2022-10-29T06:13:14.829Z,7.93
2022-10-29T06:15:42.248Z,9.35
2022-10-29T06:18:10.162Z,7.85
2022-10-29T06:20:38.411Z,11.68
2022-10-29T06:23:06.791Z,10.35
2022-10-29T06:25:35.160Z,12.15
2022-10-29T06:28:03.865Z,13.73
2022-10-29T06:30:32.392Z,13.48
2022-10-29T06:33:01.034Z,7.90
2022-10-29T06:35:28.872Z,15.77
2022-10-29T06:37:56.658Z,11.02
2022-10-29T06:40:24.349Z,9.55
2022-10-29T06:42:58.809Z,9.55
2022-10-29T06:45:26.260Z,13.27
2022-10-29T06:47:55.292Z,16.45
2022-10-29T06:50:23.178Z,8.85
2022-10-29T06:53:01.665Z,8.50
2022-10-29T06:55:29.255Z,12.82
2022-10-29T06:57:58.627Z,12.57
2022-10-29T07:00:26.187Z,11.93
2022-10-29T07:02:59.074Z,10.77
2022-10-29T07:05:27.259Z,11.48
2022-10-29T07:07:58.900Z,7.60
2022-10-29T07:10:27.637Z,10.10
2022-10-29T07:12:56.103Z,10.45
2022-10-29T07:15:27.358Z,10.52
2022-10-29T07:18:00.439Z,11.10
2022-10-29T07:20:29.473Z,9.77
2022-10-29T07:23:03.517Z,12.68
2022-10-29T07:25:31.012Z,14.32
2022-10-29T07:28:05.319Z,23.58
2022-10-29T07:30:33.655Z,16.05
2022-10-29T07:33:01.204Z,17.10
2022-10-29T07:35:28.760Z,24.27
2022-10-29T07:38:07.252Z,18.92
2022-10-29T07:40:43.031Z,12.73
2022-10-29T07:43:10.437Z,34.83
2022-10-29T07:45:38.108Z,15.90
2022-10-29T07:48:07.993Z,15.23
2022-10-29T07:50:36.029Z,15.00
2022-10-29T07:53:03.824Z,10.63
2022-10-29T07:55:31.442Z,17.33
2022-10-29T07:58:01.614Z,16.38
2022-10-29T08:00:31.990Z,16.13
2022-10-29T08:02:59.865Z,20.63
2022-10-29T08:05:27.955Z,15.35
2022-10-29T08:07:55.810Z,16.73
2022-10-29T08:10:24.256Z,13.18
2022-10-29T08:12:52.420Z,16.90
2022-10-29T08:15:20.258Z,16.42
2022-10-29T08:17:47.991Z,18.67
2022-10-29T08:20:15.960Z,18.70
2022-10-29T08:22:43.993Z,27.42
2022-10-29T08:25:12.227Z,13.15
2022-10-29T08:27:39.693Z,16.90
2022-10-29T08:30:07.829Z,15.48
2022-10-29T08:32:35.748Z,15.70
2022-10-29T08:35:03.630Z,18.63
2022-10-29T08:37:31.827Z,13.80
2022-10-29T08:39:59.278Z,15.65
2022-10-29T08:42:48.272Z,14.52
2022-10-29T08:45:24.282Z,14.60
2022-10-29T08:48:11.901Z,14.25
2022-10-29T08:50:41.868Z,10.60
2022-10-29T08:53:23.262Z,13.98
2022-10-29T08:55:51.002Z,16.23
2022-10-29T08:58:29.132Z,14.23
2022-10-29T09:00:58.676Z,12.82
2022-10-29T09:03:30.056Z,12.57
2022-10-29T09:06:06.623Z,10.00
2022-10-29T09:08:55.849Z,16.40
2022-10-29T09:11:23.229Z,12.02
2022-10-29T09:13:56.584Z,15.48
2022-10-29T09:16:24.120Z,12.50
2022-10-29T09:19:04.000Z,13.60
2022-10-29T09:21:31.472Z,11.35
2022-10-29T09:23:58.978Z,14.32
2022-10-29T09:26:32.296Z,14.70
2022-10-29T09:29:11.490Z,22.23
2022-10-29T09:31:42.603Z,18.05
2022-10-29T09:34:19.203Z,13.38
2022-10-29T09:36:48.868Z,13.40
2022-10-29T09:39:23.326Z,11.18
2022-10-29T09:41:55.089Z,18.20
2022-10-29T09:44:24.139Z,9.77
2022-10-29T09:47:10.003Z,14.88
2022-10-29T09:49:43.495Z,6.78
2022-10-29T09:52:27.932Z,11.13
2022-10-29T09:54:55.927Z,14.15
2022-10-29T09:57:24.904Z,15.80
2022-10-29T09:59:54.911Z,14.93
2022-10-29T10:02:37.590Z,14.57
2022-10-29T10:05:25.252Z,15.70
2022-10-29T10:08:06.596Z,12.13
2022-10-29T10:10:34.974Z,17.75
2022-10-29T10:13:03.554Z,14.18
2022-10-29T10:15:35.502Z,14.70
2022-10-29T10:18:03.314Z,15.35
2022-10-29T10:20:33.850Z,16.35
2022-10-29T10:23:01.485Z,12.48
2022-10-29T10:25:33.383Z,11.15
2022-10-29T10:28:04.494Z,16.05
2022-10-29T10:30:31.974Z,14.63
2022-10-29T10:33:11.653Z,15.68
2022-10-29T10:35:39.503Z,10.73
2022-10-29T10:38:12.186Z,17.35
2022-10-29T10:40:39.890Z,18.00
2022-10-29T10:43:09.177Z,14.90
2022-10-29T10:45:38.206Z,13.20
2022-10-29T10:48:09.170Z,9.93
2022-10-29T10:50:37.278Z,14.25
2022-10-29T10:53:06.207Z,14.68
2022-10-29T10:55:35.475Z,18.45
2022-10-29T10:58:02.942Z,15.73
2022-10-29T11:00:33.554Z,12.00
2022-10-29T11:03:10.160Z,11.85
2022-10-29T11:05:40.678Z,10.38
2022-10-29T11:08:13.714Z,10.60
2022-10-29T11:10:46.998Z,11.95
2022-10-29T11:13:19.401Z,12.00
2022-10-29T11:15:52.762Z,14.50
2022-10-29T11:18:23.023Z,10.90
2022-10-29T11:21:02.816Z,14.68
2022-10-29T11:23:33.023Z,10.15
2022-10-29T11:26:08.849Z,15.07
2022-10-29T11:28:48.274Z,15.57
2022-10-29T11:31:29.365Z,16.30
2022-10-29T11:34:16.610Z,11.07
2022-10-29T11:36:51.709Z,15.35
2022-10-29T11:39:23.698Z,15.43
2022-10-29T11:41:56.919Z,18.60
2022-10-29T11:44:24.429Z,12.50
2022-10-29T11:46:59.962Z,11.20
2022-10-29T11:49:42.205Z,17.30
2022-10-29T11:52:17.426Z,25.55
2022-10-29T11:55:00.163Z,18.67
2022-10-29T11:57:27.627Z,12.27
2022-10-29T12:00:01.193Z,11.75
2022-10-29T12:02:41.245Z,10.48
2022-10-29T12:05:11.646Z,14.18
2022-10-29T12:08:00.413Z,16.58
2022-10-29T12:10:33.340Z,13.35
2022-10-29T12:13:10.455Z,13.95
2022-10-29T12:15:38.382Z,13.38
2022-10-29T12:18:06.050Z,17.20
2022-10-29T12:20:33.711Z,11.93
2022-10-29T12:23:25.379Z,13.18
2022-10-29T12:26:13.170Z,14.10
2022-10-29T12:28:59.672Z,23.63
2022-10-29T12:31:32.408Z,12.63
2022-10-29T12:34:02.941Z,19.75
2022-10-29T12:36:53.318Z,13.40
2022-10-29T12:39:30.290Z,12.95
2022-10-29T12:42:01.247Z,14.00
2022-10-29T12:44:44.867Z,12.50
2022-10-29T12:47:13.341Z,10.98
2022-10-29T12:49:59.385Z,11.48
2022-10-29T12:52:35.539Z,10.65
2022-10-29T12:55:05.918Z,15.10
2022-10-29T12:57:37.648Z,8.93
2022-10-29T13:00:24.407Z,9.07
2022-10-29T13:02:53.024Z,15.60
2022-10-29T13:05:36.656Z,14.63
2022-10-29T13:08:05.034Z,16.38
2022-10-29T13:10:35.737Z,18.13
2022-10-29T13:13:08.809Z,10.82
2022-10-29T13:16:05.968Z,23.30
2022-10-29T13:18:41.295Z,18.63
2022-10-29T13:21:10.369Z,13.60
2022-10-29T13:23:38.741Z,16.88
2022-10-29T13:26:07.449Z,17.15
2022-10-29T13:28:38.032Z,15.52
2022-10-29T13:31:05.469Z,21.73
2022-10-29T13:33:32.922Z,12.20
2022-10-29T13:36:21.875Z,16.35
2022-10-29T13:39:04.886Z,30.10
2022-10-29T13:44:14.221Z,16.50
2022-10-29T13:46:45.229Z,13.48
2022-10-29T13:49:21.899Z,41.25
2022-10-29T13:51:54.599Z,29.70
2022-10-29T13:54:31.394Z,20.63
2022-10-29T13:57:04.775Z,13.20
2022-10-29T13:59:37.462Z,20.00
2022-10-29T14:02:20.251Z,20.40
2022-10-29T14:04:50.339Z,12.90
2022-10-29T14:07:19.754Z,10.52
2022-10-29T14:09:50.232Z,12.60
2022-10-29T14:12:20.040Z,26.80
2022-10-29T14:15:17.442Z,20.75
2022-10-29T14:17:44.949Z,14.35
2022-10-29T14:20:26.433Z,12.98
2022-10-29T14:22:54.393Z,9.35
2022-10-29T14:25:29.799Z,12.48
2022-10-29T14:28:12.714Z,16.55
2022-10-29T14:30:40.307Z,21.02
2022-10-29T14:33:18.513Z,15.60
2022-10-29T14:35:46.663Z,15.15
2022-10-29T14:38:14.461Z,10.13
2022-10-29T14:40:45.462Z,14.65
2022-10-29T14:43:18.809Z,11.57
2022-10-29T14:45:47.416Z,14.13
2022-10-29T14:48:16.860Z,9.18
2022-10-29T14:50:49.116Z,11.13
2022-10-29T14:53:43.033Z,15.80
2022-10-29T14:56:19.540Z,15.27
2022-10-29T14:58:47.925Z,16.48
2022-10-29T15:01:19.389Z,15.95
2022-10-29T15:03:48.068Z,11.88
2022-10-29T15:06:19.448Z,11.98
2022-10-29T15:08:54.194Z,11.65
2022-10-29T15:11:31.603Z,14.60
2022-10-29T15:13:59.437Z,13.18
2022-10-29T15:16:27.303Z,15.82
2022-10-29T15:18:56.941Z,21.70
2022-10-29T15:21:24.469Z,17.17
2022-10-29T15:23:55.076Z,15.52
2022-10-29T15:26:23.011Z,14.07
2022-10-29T15:28:52.778Z,12.80
2022-10-29T15:31:23.343Z,27.73
2022-10-29T15:33:52.410Z,27.17
2022-10-29T15:36:19.928Z,19.52
2022-10-29T15:38:52.177Z,22.73
2022-10-29T15:41:45.218Z,14.82
2022-10-29T15:44:30.369Z,16.80
2022-10-29T15:46:59.500Z,14.23
2022-10-29T15:49:31.383Z,18.85
2022-10-29T15:52:01.062Z,13.00
2022-10-29T15:54:28.779Z,15.90
2022-10-29T15:56:56.534Z,15.05
2022-10-29T15:59:25.287Z,15.25
2022-10-29T16:01:53.356Z,12.60
2022-10-29T16:04:21.151Z,14.80
2022-10-29T16:06:49.123Z,18.08
2022-10-29T16:09:20.809Z,12.32
2022-10-29T16:11:50.838Z,12.15
2022-10-29T16:14:18.423Z,13.13
2022-10-29T16:16:46.447Z,11.77
2022-10-29T16:19:14.293Z,11.93
2022-10-29T16:21:42.089Z,14.90
2022-10-29T16:24:14.602Z,15.20
2022-10-29T16:26:42.107Z,13.25
2022-10-29T16:29:09.639Z,15.65
2022-10-29T16:31:37.509Z,18.00
2022-10-29T16:34:06.720Z,23.08
2022-10-29T16:36:34.176Z,17.48
2022-10-29T16:39:01.768Z,13.82
2022-10-29T16:41:29.512Z,23.08
2022-10-29T16:43:57.077Z,11.45
2022-10-29T16:46:24.411Z,13.82
2022-10-29T16:48:51.961Z,16.65
2022-10-29T16:51:19.436Z,18.30
2022-10-29T16:53:46.889Z,18.70
2022-10-29T16:56:16.317Z,16.25
2022-10-29T16:58:43.840Z,21.63
2022-10-29T17:01:11.467Z,19.52
2022-10-29T17:03:41.940Z,25.85
2022-10-29T17:06:11.156Z,25.58
2022-10-29T17:08:41.628Z,28.13
2022-10-29T17:11:10.404Z,26.73
2022-10-29T17:13:37.979Z,29.73
2022-10-29T17:16:09.000Z,18.75
2022-10-29T17:18:36.715Z,22.48
2022-10-29T17:21:05.627Z,26.20
2022-10-29T17:23:33.834Z,13.05
2022-10-29T17:26:01.350Z,27.08
2022-10-29T17:28:29.168Z,12.75
2022-10-29T17:30:56.918Z,16.83
2022-10-29T17:33:24.295Z,19.77
2022-10-29T17:36:00.916Z,27.52
2022-10-29T17:38:28.389Z,10.25
2022-10-29T17:40:56.093Z,16.25
2022-10-29T17:43:23.486Z,23.95
2022-10-29T17:45:50.991Z,16.50
2022-10-29T17:48:23.960Z,22.75
2022-10-29T17:50:56.100Z,26.08
2022-10-29T17:53:24.149Z,16.92
2022-10-29T17:55:51.687Z,17.23
2022-10-29T17:58:19.565Z,22.05
2022-10-29T18:00:48.839Z,21.23
2022-10-29T18:03:16.302Z,20.58
2022-10-29T18:05:43.850Z,18.23
2022-10-29T18:08:11.175Z,26.25
2022-10-29T18:10:38.941Z,25.58
2022-10-29T18:13:06.284Z,18.90
2022-10-29T18:15:33.798Z,25.15
2022-10-29T18:18:01.504Z,23.48
2022-10-29T18:20:29.780Z,23.65
2022-10-29T18:22:57.835Z,24.15
2022-10-29T18:25:26.313Z,25.92
2022-10-29T18:27:56.324Z,25.52
2022-10-29T18:30:24.366Z,20.73
2022-10-29T18:32:51.838Z,23.63
2022-10-29T18:35:19.461Z,16.77
2022-10-29T18:37:47.927Z,18.05
2022-10-29T18:40:15.648Z,16.15
2022-10-29T18:42:43.961Z,15.52
2022-10-29T18:45:12.242Z,10.35
2022-10-29T18:47:39.708Z,15.18
2022-10-29T18:50:07.532Z,17.75
2022-10-29T18:52:35.260Z,13.20
2022-10-29T18:55:02.838Z,13.30
2022-10-29T18:57:30.919Z,17.35
2022-10-29T18:59:58.660Z,12.88
2022-10-29T19:02:26.951Z,14.00
2022-10-29T19:04:54.563Z,13.25
2022-10-29T19:07:22.242Z,14.75
2022-10-29T19:09:49.902Z,17.23
2022-10-29T19:12:17.602Z,16.67
2022-10-29T19:14:45.241Z,14.27
2022-10-29T19:17:12.643Z,15.50
2022-10-29T19:19:40.325Z,18.05
2022-10-29T19:22:07.643Z,15.35
2022-10-29T19:24:34.974Z,22.65
2022-10-29T19:27:02.336Z,20.60
2022-10-29T19:29:29.822Z,19.65
2022-10-29T19:31:57.279Z,19.48
2022-10-29T19:34:25.658Z,13.95
2022-10-29T19:36:54.059Z,20.27
2022-10-29T19:39:21.580Z,18.00
2022-10-29T19:41:49.040Z,16.63
2022-10-29T19:44:16.620Z,19.35
2022-10-29T19:46:44.065Z,21.00
2022-10-29T19:49:11.414Z,19.17
2022-10-29T19:51:38.885Z,11.75
2022-10-29T19:54:08.168Z,10.50
2022-10-29T19:56:35.802Z,22.75
2022-10-29T19:59:04.031Z,29.35
2022-10-29T20:01:31.999Z,26.98
2022-10-29T20:03:59.599Z,16.05
2022-10-29T20:06:27.215Z,21.55
2022-10-29T20:08:54.650Z,33.42
2022-10-29T20:11:22.571Z,19.10
2022-10-29T20:13:49.980Z,24.48
2022-10-29T20:16:18.527Z,16.95
2022-10-29T20:18:46.320Z,18.05
2022-10-29T20:21:15.213Z,19.25
2022-10-29T20:23:42.650Z,19.02
2022-10-29T20:26:10.459Z,20.50
2022-10-29T20:28:38.337Z,19.73
2022-10-29T20:31:18.006Z,24.67
2022-10-29T20:33:52.208Z,15.88
2022-10-29T20:36:20.028Z,14.77
2022-10-29T20:38:51.060Z,14.10
2022-10-29T20:41:19.089Z,21.73
2022-10-29T20:43:46.682Z,17.20
2022-10-29T20:46:14.326Z,13.23
2022-10-29T20:48:41.644Z,13.80
2022-10-29T20:51:09.033Z,14.18
2022-10-29T20:53:36.758Z,18.25
2022-10-29T20:56:04.264Z,19.33
2022-10-29T20:58:31.560Z,15.25
2022-10-29T21:01:06.347Z,13.77
2022-10-29T21:03:34.126Z,18.30
2022-10-29T21:06:02.469Z,19.23
2022-10-29T21:08:30.445Z,19.60
2022-10-29T21:11:05.157Z,15.55
2022-10-29T21:13:33.045Z,12.13
2022-10-29T21:16:11.939Z,15.85
2022-10-29T21:18:40.187Z,19.63
2022-10-29T21:21:08.164Z,18.95
2022-10-29T21:23:38.942Z,13.05
2022-10-29T21:26:10.440Z,16.73
2022-10-29T21:28:37.778Z,20.63
2022-10-29T21:31:05.206Z,17.02
2022-10-29T21:33:32.641Z,21.75
2022-10-29T21:36:00.313Z,26.38
2022-10-29T21:38:28.493Z,22.27
2022-10-29T21:40:56.214Z,18.73
2022-10-29T21:43:23.527Z,19.88
2022-10-29T21:45:51.871Z,24.25
2022-10-29T21:48:19.970Z,26.83
2022-10-29T21:50:47.592Z,23.55
2022-10-29T21:55:43.009Z,25.63
2022-10-29T21:58:10.318Z,25.52
2022-10-29T22:00:37.916Z,17.50
2022-10-29T22:03:05.394Z,14.20
2022-10-29T22:05:32.906Z,31.08
2022-10-29T22:08:01.126Z,21.08
2022-10-29T22:10:29.254Z,21.20
2022-10-29T22:12:56.899Z,14.85
2022-10-29T22:15:24.511Z,13.38
2022-10-29T22:17:51.875Z,14.13
2022-10-29T22:20:19.616Z,14.10
2022-10-29T22:22:47.013Z,17.17
2022-10-29T22:25:14.379Z,17.95
2022-10-29T22:27:41.697Z,11.57
2022-10-29T22:30:09.230Z,15.98
2022-10-29T22:32:36.794Z,12.90
2022-10-29T22:35:04.238Z,18.63
2022-10-29T22:37:31.582Z,14.43
2022-10-29T22:39:59.031Z,12.20
2022-10-29T22:42:27.034Z,18.10
2022-10-29T22:44:54.481Z,22.63
2022-10-29T22:47:21.828Z,17.95
2022-10-29T22:49:49.128Z,13.68
2022-10-29T22:52:16.703Z,11.73
2022-10-29T22:54:44.056Z,16.20
2022-10-29T22:57:11.546Z,14.48
2022-10-29T22:59:39.013Z,13.38
2022-10-29T23:02:06.776Z,16.92
2022-10-29T23:04:34.291Z,16.98
2022-10-29T23:07:02.180Z,14.15
2022-10-29T23:09:30.026Z,15.13
2022-10-29T23:11:57.338Z,12.18
2022-10-29T23:14:25.175Z,20.88
2022-10-29T23:16:52.554Z,13.50
2022-10-29T23:19:20.278Z,15.88
2022-10-29T23:21:47.608Z,18.40
2022-10-29T23:24:15.061Z,18.00
2022-10-29T23:26:42.403Z,17.33
2022-10-29T23:29:09.757Z,18.30
2022-10-29T23:31:37.242Z,11.88
2022-10-29T23:34:04.984Z,9.07
2022-10-29T23:36:33.957Z,13.02
2022-10-29T23:39:02.169Z,11.75
2022-10-29T23:41:30.363Z,9.90
2022-10-29T23:43:58.121Z,11.55
2022-10-29T23:46:25.847Z,15.07
2022-10-29T23:48:53.307Z,13.38
2022-10-29T23:51:21.103Z,12.25
2022-10-29T23:53:50.501Z,30.10
2022-10-29T23:56:20.700Z,22.58
2022-10-29T23:58:48.184Z,18.55
